Airfield :







YOU CAN JOIN US ON...

 
LOGIN :

Register | Disclaimer

   EN    FR    IT 

 









Legend :    VFR   Marginal VFR   IFR   Intensive IFR   Very Intensive IFR
Visi :
Ceiling :
>= 8 km
>= 3000ft
5 to 8 km
1000 to 3000 ft
1500m to 5 km
500 to 1000 ft
800 to 1500m
200 to 500 ft
< 800m
< 200 ft
Symbols :   Thunderstorms  Fog  Heavy snow  Heavy precipitations  Wind > 20 kt







- Airport Elevation : 118 ft
- IATA code : YUL


CYUL - Montréal - Pierre-Elliott-Trudeau Int.

CURRENT METAR :
  • 250100Z 23007KT 5SM -SN FEW012 OVC050 M01/M03 A2999 RMK SF1SC8 SF TR SLP160

EXPIRED METARs :
  • 250000Z 29008KT 8SM -SN OVC040 01/M04 A2997 RMK SC8 SLP153
  • 242350Z 27008KT 12SM -SN OVC052 01/M04 A2997 RMK SC8 -SN INTMT SLP153
  • 242326Z 29006KT 15SM BKN050 OVC070 01/M04 A2997 RMK SC7AS1 SLP150
  • 242300Z 29007KT 15SM -SN BKN050 OVC070 01/M03 A2996 RMK SC7AS1 SLP148
  • 242217Z 30008KT 5SM -SN FEW011 BKN060 OVC070 01/M01 A2996 RMK SF1SC5AS2 SLP147

TAF TAF CYUL
Valid from the 25 at 00:00 until the 26 at 00:00 UTC


242338Z 2500/2524 29007KT P6SM OVC040
TEMPO 2500/2502 4SM -SN BKN020 OVC040
FM250400 31010KT P6SM SKC
BECMG 2506/2508 27008KT
FM251600 25015G25KT P6SM FEW040
BECMG 2521/2523 26010KT RMK NXT FCST BY 250300Z
ATIS : ENG : +1 514-633-3037 FRA : +1 514-633-3034
CZUL FIR / North America



MET'MAP, your aeronautical weather chart ! - Copyright ORBIFLY December 2007 - Disclaimer

ORBIFLY MET'MAP TEAM :

Programming & Development : Alexandra Zaïnal
Concept & Development : Baudouin d'Aumeries
Co-Development & Prog : Marc-Olivier Méhu
Technical & hardware support : Manuel Goepfert

Contact : metmap@orbifly.com




SOURCES & CREDITS :

   NOAA